createdAt,value
2018-08-10T00:01:00.221Z,36.1
2018-08-10T00:02:02.385Z,35.9
2018-08-10T00:03:04.536Z,36.1
2018-08-10T00:04:06.450Z,36.2
2018-08-10T00:05:08.327Z,36
2018-08-10T00:06:10.208Z,36.1
2018-08-10T00:07:12.410Z,36.2
2018-08-10T00:08:14.008Z,36
2018-08-10T00:09:15.911Z,36.2
2018-08-10T00:10:18.092Z,36.1
2018-08-10T00:11:20.024Z,36.1
2018-08-10T00:12:22.467Z,36.1
2018-08-10T00:13:24.921Z,36.1
2018-08-10T00:14:27.383Z,36.1
2018-08-10T00:15:29.548Z,36
2018-08-10T00:16:31.455Z,36.2
2018-08-10T00:17:33.911Z,36.3
2018-08-10T00:18:36.073Z,36.1
2018-08-10T00:19:38.250Z,36.2
2018-08-10T00:20:40.698Z,36.3
2018-08-10T00:21:43.157Z,35.9
2018-08-10T00:22:45.347Z,36
2018-08-10T00:23:47.796Z,36.1
2018-08-10T00:24:49.957Z,36.1
2018-08-10T00:25:51.869Z,36.1
2018-08-10T00:26:54.308Z,36.2
2018-08-10T00:27:56.483Z,36.2
2018-08-10T00:28:58.657Z,36.1
2018-08-10T00:30:01.103Z,36.2
2018-08-10T00:31:03.266Z,36.1
2018-08-10T00:32:05.728Z,36.3
2018-08-10T00:33:07.919Z,36.1
2018-08-10T00:34:10.101Z,36.1
2018-08-10T00:35:12.547Z,36.1
2018-08-10T00:36:13.921Z,36.2
2018-08-10T00:37:16.092Z,36.1
2018-08-10T00:38:18.545Z,36.2
2018-08-10T00:39:20.698Z,36.2
2018-08-10T00:40:23.149Z,36.2
2018-08-10T00:41:25.330Z,36.2
2018-08-10T00:42:27.530Z,36.2
2018-08-10T00:43:29.720Z,36.2
2018-08-10T00:44:31.927Z,36.3
2018-08-10T00:45:34.370Z,36.2
2018-08-10T00:46:36.818Z,36.2
2018-08-10T00:47:39.002Z,36.4
2018-08-10T00:48:41.149Z,36.1
2018-08-10T00:49:43.602Z,36.1
2018-08-10T00:50:45.767Z,36.2
2018-08-10T00:51:48.228Z,36.3
2018-08-10T00:52:50.660Z,36.1
2018-08-10T00:53:52.834Z,36.3
2018-08-10T00:54:55.009Z,36.2
2018-08-10T00:55:57.474Z,36.3
2018-08-10T00:56:59.917Z,36.2
2018-08-10T00:58:01.795Z,36.2
2018-08-10T00:59:04.234Z,36.2
2018-08-10T01:00:06.139Z,36.3
2018-08-10T01:01:08.315Z,36.2
2018-08-10T01:02:10.757Z,36.1
2018-08-10T01:03:12.948Z,36.2
2018-08-10T01:04:15.389Z,36.3
2018-08-10T01:05:17.568Z,36.3
2018-08-10T01:06:20.031Z,36.1
2018-08-10T01:07:22.478Z,36.3
2018-08-10T01:08:24.646Z,36
2018-08-10T01:09:26.818Z,36.2
2018-08-10T01:10:28.989Z,36.2
2018-08-10T01:11:30.881Z,36.2
2018-08-10T01:12:33.068Z,36.1
2018-08-10T01:13:35.713Z,36.2
2018-08-10T01:14:38.376Z,36.3
2018-08-10T01:15:40.561Z,36.1
2018-08-10T01:16:42.998Z,36.1
2018-08-10T01:17:45.442Z,36.2
2018-08-10T01:18:47.906Z,36.1
2018-08-10T01:19:50.347Z,36.1
2018-08-10T01:20:52.527Z,36.2
2018-08-10T01:21:54.150Z,36.3
2018-08-10T01:22:56.326Z,36
2018-08-10T01:23:58.782Z,36.1
2018-08-10T01:25:01.231Z,36.3
2018-08-10T01:26:03.411Z,36.1
2018-08-10T01:27:05.859Z,36.3
2018-08-10T01:28:08.031Z,36.4
2018-08-10T01:29:10.477Z,36.3
2018-08-10T01:30:12.685Z,36.2
2018-08-10T01:31:15.134Z,36.2
2018-08-10T01:32:17.577Z,36.3
2018-08-10T01:33:19.766Z,36.2
2018-08-10T01:34:21.948Z,36.1
2018-08-10T01:35:24.400Z,36.1
2018-08-10T01:36:26.839Z,36.3
2018-08-10T01:37:29.292Z,36.2
2018-08-10T01:38:31.469Z,36.1
2018-08-10T01:39:33.916Z,36
2018-08-10T01:40:36.099Z,36.1
2018-08-10T01:41:38.537Z,36.1
2018-08-10T01:42:40.713Z,36.3
2018-08-10T01:43:43.162Z,36.1
2018-08-10T01:44:45.339Z,36.3
2018-08-10T01:45:47.237Z,36.3
2018-08-10T01:46:49.186Z,36.2
2018-08-10T01:47:51.633Z,36.3
2018-08-10T01:48:53.818Z,36.3
2018-08-10T01:49:55.982Z,36.2
2018-08-10T01:50:58.164Z,36.3
2018-08-10T01:52:00.038Z,36.4
2018-08-10T01:53:01.932Z,36.3
2018-08-10T01:54:04.396Z,36.2
2018-08-10T01:55:06.558Z,36.2
2018-08-10T01:56:09.020Z,36.2
2018-08-10T01:57:11.197Z,36.2
2018-08-10T01:58:13.668Z,36.1
2018-08-10T01:59:15.537Z,36.2
2018-08-10T02:00:17.731Z,36.2
2018-08-10T02:01:19.906Z,36.2
2018-08-10T02:02:22.087Z,36.3
2018-08-10T02:03:24.539Z,36.2
2018-08-10T02:04:26.418Z,36.2
2018-08-10T02:05:28.878Z,36.1
2018-08-10T02:06:31.319Z,36.3
2018-08-10T02:07:33.758Z,36.1
2018-08-10T02:08:36.198Z,36.3
2018-08-10T02:09:38.648Z,36.1
2018-08-10T02:10:40.547Z,36.2
2018-08-10T02:11:42.997Z,36.3
2018-08-10T02:12:44.913Z,36.2
2018-08-10T02:13:47.112Z,36.3
2018-08-10T02:14:49.288Z,36.2
2018-08-10T02:15:50.905Z,36.1
2018-08-10T02:16:53.097Z,36.2
2018-08-10T02:17:54.998Z,36.4
2018-08-10T02:18:56.879Z,36.2
2018-08-10T02:19:59.319Z,36.3
2018-08-10T02:21:01.770Z,36.1
2018-08-10T02:22:04.212Z,36.1
2018-08-10T02:23:06.383Z,36.3
2018-08-10T02:24:08.837Z,36.3
2018-08-10T02:25:11.287Z,36.2
2018-08-10T02:26:13.439Z,36.1
2018-08-10T02:27:15.628Z,36.3
2018-08-10T02:28:17.822Z,36.2
2018-08-10T02:29:20.303Z,36.3
2018-08-10T02:30:22.479Z,36.2
2018-08-10T02:31:24.922Z,36.4
2018-08-10T02:32:27.384Z,36.4
2018-08-10T02:33:29.560Z,36.3
2018-08-10T02:34:31.739Z,36.2
2018-08-10T02:35:34.240Z,36.1
2018-08-10T02:36:36.431Z,36.1
2018-08-10T02:37:38.887Z,36.2
2018-08-10T02:38:41.051Z,36.5
2018-08-10T02:39:43.219Z,36.2
2018-08-10T02:40:45.724Z,36.3
2018-08-10T02:41:48.169Z,36.3
2018-08-10T02:42:50.621Z,36.2
2018-08-10T02:43:52.521Z,36.2
2018-08-10T02:44:54.950Z,36.2
2018-08-10T02:45:57.142Z,36.3
2018-08-10T02:46:59.338Z,36.3
2018-08-10T02:48:01.506Z,36.2
2018-08-10T02:49:03.413Z,36.4
2018-08-10T02:50:05.288Z,36.2
2018-08-10T02:51:07.739Z,36.3
2018-08-10T02:52:10.201Z,36.3
2018-08-10T02:53:12.637Z,36.1
2018-08-10T02:54:15.082Z,36.3
2018-08-10T02:55:17.517Z,36.1
2018-08-10T02:56:19.976Z,36.3
2018-08-10T02:57:22.140Z,36.3
2018-08-10T02:58:24.319Z,36.3
2018-08-10T02:59:26.768Z,36.2
2018-08-10T03:00:28.676Z,36.3
2018-08-10T03:01:30.857Z,36.2
2018-08-10T03:02:33.059Z,36.4
2018-08-10T03:03:35.489Z,36.4
2018-08-10T03:04:37.354Z,36.2
2018-08-10T03:05:39.535Z,36.2
2018-08-10T03:06:41.977Z,36.2
2018-08-10T03:07:44.434Z,36.1
2018-08-10T03:08:46.893Z,36.3
2018-08-10T03:09:49.061Z,36.3
2018-08-10T03:10:51.530Z,36.2
2018-08-10T03:11:53.987Z,36.2
2018-08-10T03:12:55.871Z,36.1
2018-08-10T03:13:58.057Z,36.2
2018-08-10T03:15:00.526Z,36.1
2018-08-10T03:16:02.434Z,36.1
2018-08-10T03:17:04.886Z,36.2
2018-08-10T03:18:07.332Z,36.1
2018-08-10T03:19:09.222Z,36.2
2018-08-10T03:20:11.691Z,36.2
2018-08-10T03:21:13.839Z,36.3
2018-08-10T03:22:16.480Z,36.2
2018-08-10T03:23:19.037Z,36.2
2018-08-10T03:24:20.964Z,36.1
2018-08-10T03:25:23.186Z,36.2
2018-08-10T03:26:25.652Z,36.4
2018-08-10T03:27:27.808Z,36.1
2018-08-10T03:28:29.985Z,36.2
2018-08-10T03:29:32.425Z,36.2
2018-08-10T03:30:34.579Z,36.3
2018-08-10T03:31:36.483Z,36.2
2018-08-10T03:32:38.629Z,36.2
2018-08-10T03:33:41.087Z,36.2
2018-08-10T03:34:43.246Z,36.2
2018-08-10T03:35:45.417Z,36
2018-08-10T03:36:47.590Z,36.1
2018-08-10T03:37:49.240Z,36.2
2018-08-10T03:38:51.413Z,36.1
2018-08-10T03:39:53.861Z,36.3
2018-08-10T03:40:56.305Z,36.2
2018-08-10T03:41:58.227Z,36.2
2018-08-10T03:43:00.387Z,36.2
2018-08-10T03:44:02.587Z,36
2018-08-10T03:45:04.742Z,36.2
2018-08-10T03:46:07.186Z,36.2
2018-08-10T03:47:09.632Z,36.1
2018-08-10T03:48:12.080Z,36.1
2018-08-10T03:49:14.240Z,36.2
2018-08-10T03:50:16.424Z,36.1
2018-08-10T03:51:17.784Z,36.2
2018-08-10T03:52:19.964Z,36.1
2018-08-10T03:53:22.406Z,36.1
2018-08-10T03:54:24.061Z,36.3
2018-08-10T03:55:26.520Z,36.3
2018-08-10T03:56:28.688Z,36.1
2018-08-10T03:57:30.605Z,36.1
2018-08-10T03:58:32.776Z,36.3
2018-08-10T03:59:34.956Z,36.4
2018-08-10T04:00:37.396Z,36.2
2018-08-10T04:01:39.577Z,36.2
2018-08-10T04:02:41.779Z,36.4
2018-08-10T04:03:44.217Z,36.2
2018-08-10T04:04:45.865Z,36.1
2018-08-10T04:05:48.301Z,36.3
2018-08-10T04:06:50.448Z,36.3
2018-08-10T04:07:52.597Z,36.1
2018-08-10T04:08:54.788Z,36.2
2018-08-10T04:09:56.976Z,36.1
2018-08-10T04:10:59.417Z,36.1
2018-08-10T04:12:01.873Z,36.2
2018-08-10T04:13:04.327Z,36.1
2018-08-10T04:14:06.783Z,36
2018-08-10T04:15:09.225Z,36.2
2018-08-10T04:16:11.408Z,36.2
2018-08-10T04:17:13.580Z,36.2
2018-08-10T04:18:15.493Z,36.1
2018-08-10T04:19:17.101Z,36.1
2018-08-10T04:20:19.266Z,36.1
2018-08-10T04:21:21.729Z,36.1
2018-08-10T04:22:24.178Z,36.2
2018-08-10T04:23:26.351Z,36
2018-08-10T04:24:28.803Z,36
2018-08-10T04:25:31.249Z,36.2
2018-08-10T04:26:33.423Z,36.2
2018-08-10T04:27:35.607Z,36.1
2018-08-10T04:28:37.780Z,36.2
2018-08-10T04:29:40.322Z,36.1
2018-08-10T04:30:43.408Z,36.2
2018-08-10T04:31:45.587Z,36.2
2018-08-10T04:32:47.767Z,36
2018-08-10T04:33:50.217Z,36.1
2018-08-10T04:34:52.679Z,36.1
2018-08-10T04:35:54.860Z,36.1
2018-08-10T04:36:57.053Z,36
2018-08-10T04:37:59.242Z,36.1
2018-08-10T04:39:01.678Z,36
2018-08-10T04:40:03.864Z,36.1
2018-08-10T04:41:05.755Z,36
2018-08-10T04:42:08.200Z,36.2
2018-08-10T04:43:10.690Z,36.2
2018-08-10T04:44:12.856Z,36
2018-08-10T04:45:14.768Z,36.1
2018-08-10T04:46:17.216Z,36
2018-08-10T04:47:19.697Z,36
2018-08-10T04:48:22.155Z,35.9
2018-08-10T04:49:24.606Z,36.2
2018-08-10T04:50:26.820Z,36.1
2018-08-10T04:51:29.277Z,36.1
2018-08-10T04:52:31.451Z,36
2018-08-10T04:53:33.883Z,36.1
2018-08-10T04:54:36.329Z,36.1
2018-08-10T04:55:38.773Z,36
2018-08-10T04:56:40.968Z,36.1
2018-08-10T04:57:43.107Z,36
2018-08-10T04:58:45.570Z,36.1
2018-08-10T04:59:47.754Z,35.9
2018-08-10T05:00:49.628Z,36.1
2018-08-10T05:01:51.805Z,36
2018-08-10T05:02:53.726Z,35.9
2018-08-10T05:03:55.877Z,36.1
2018-08-10T05:04:58.325Z,36.1
2018-08-10T05:06:00.786Z,36.1
2018-08-10T05:07:02.400Z,36.1
2018-08-10T05:08:04.570Z,35.9
2018-08-10T05:09:07.033Z,36
2018-08-10T05:10:08.956Z,36
2018-08-10T05:11:11.179Z,36.2
2018-08-10T05:12:12.484Z,36.1
2018-08-10T05:13:14.926Z,36.1
2018-08-10T05:14:17.387Z,35.9
2018-08-10T05:15:19.848Z,35.9
2018-08-10T05:16:22.024Z,36
2018-08-10T05:17:24.481Z,36.1
2018-08-10T05:18:26.362Z,36.1
2018-08-10T05:19:28.816Z,36
2018-08-10T05:20:30.979Z,36.1
2018-08-10T05:21:33.446Z,35.9
2018-08-10T05:22:36.473Z,36
2018-08-10T05:23:38.890Z,35.9
2018-08-10T05:24:41.377Z,36
2018-08-10T05:25:43.541Z,36
2018-08-10T05:26:45.488Z,36.1
2018-08-10T05:27:47.675Z,36.1
2018-08-10T05:28:50.121Z,36
2018-08-10T05:29:52.600Z,36.1
2018-08-10T05:30:55.083Z,36.1
2018-08-10T05:31:57.264Z,35.9
2018-08-10T05:32:59.712Z,36.1
2018-08-10T05:34:01.869Z,36
2018-08-10T05:35:04.314Z,36
2018-08-10T05:36:06.472Z,36.1
2018-08-10T05:37:08.385Z,36.1
2018-08-10T05:38:10.046Z,36.1
2018-08-10T05:39:12.550Z,35.9
2018-08-10T05:40:15.078Z,36.1
2018-08-10T05:41:17.357Z,36
2018-08-10T05:42:19.320Z,36.1
2018-08-10T05:43:21.504Z,36.1
2018-08-10T05:44:23.372Z,36
2018-08-10T05:45:25.557Z,36.1
2018-08-10T05:46:28.018Z,36
2018-08-10T05:47:31.019Z,36
2018-08-10T05:48:32.757Z,36
2018-08-10T05:49:35.084Z,36
2018-08-10T05:50:37.019Z,36
2018-08-10T05:51:39.475Z,35.9
2018-08-10T05:52:41.943Z,36
2018-08-10T05:53:44.378Z,36
2018-08-10T05:54:46.563Z,36
2018-08-10T05:55:48.751Z,36
2018-08-10T05:56:50.673Z,36
2018-08-10T05:57:52.564Z,36.1
2018-08-10T05:58:55.008Z,35.9
2018-08-10T05:59:56.920Z,35.9
2018-08-10T06:00:58.836Z,36
2018-08-10T06:02:01.007Z,35.9
2018-08-10T06:03:03.462Z,36.1
2018-08-10T06:04:05.932Z,36
2018-08-10T06:05:08.931Z,36
2018-08-10T06:06:11.118Z,35.9
2018-08-10T06:07:13.044Z,36
2018-08-10T06:08:15.525Z,36.1
2018-08-10T06:09:17.978Z,35.9
2018-08-10T06:10:19.580Z,36
2018-08-10T06:11:21.494Z,36
2018-08-10T06:12:23.690Z,36
2018-08-10T06:13:26.144Z,35.9
2018-08-10T06:14:28.590Z,35.9
2018-08-10T06:15:31.172Z,35.8
2018-08-10T06:16:34.028Z,36.1
2018-08-10T06:17:36.211Z,36
2018-08-10T06:18:38.360Z,35.9
2018-08-10T06:19:41.114Z,36
2018-08-10T06:20:43.894Z,36
2018-08-10T06:21:46.554Z,36
2018-08-10T06:22:48.848Z,36.1
2018-08-10T06:23:51.496Z,36.1
2018-08-10T06:24:53.991Z,36.2
2018-08-10T06:25:56.617Z,36
2018-08-10T06:26:58.801Z,36
2018-08-10T06:28:00.989Z,36
2018-08-10T06:29:03.448Z,35.9
2018-08-10T06:30:05.923Z,36
2018-08-10T06:31:07.833Z,35.8
2018-08-10T06:32:10.276Z,36
2018-08-10T06:33:11.895Z,36
2018-08-10T06:34:14.569Z,35.9
2018-08-10T06:35:17.370Z,36
2018-08-10T06:36:19.807Z,36.1
2018-08-10T06:37:21.419Z,35.9
2018-08-10T06:38:23.337Z,35.9
2018-08-10T06:39:25.487Z,35.8
2018-08-10T06:40:27.404Z,35.9
2018-08-10T06:41:29.588Z,35.8
2018-08-10T06:42:31.749Z,35.9
2018-08-10T06:43:33.935Z,36
2018-08-10T06:44:36.388Z,35.8
2018-08-10T06:45:38.015Z,35.9
2018-08-10T06:46:40.471Z,35.9
2018-08-10T06:47:42.627Z,35.9
2018-08-10T06:48:45.091Z,35.9
2018-08-10T06:49:47.287Z,36.1
2018-08-10T06:50:49.747Z,35.9
2018-08-10T06:51:51.648Z,36
2018-08-10T06:52:53.564Z,35.9
2018-08-10T06:53:56.014Z,35.9
2018-08-10T06:54:57.648Z,35.9
2018-08-10T06:56:00.170Z,35.9
2018-08-10T06:57:02.162Z,35.9
2018-08-10T06:58:04.474Z,35.8
2018-08-10T06:59:06.623Z,36
2018-08-10T07:00:08.762Z,36
2018-08-10T07:01:11.104Z,36
2018-08-10T07:02:13.549Z,35.9
2018-08-10T07:03:16.015Z,36
2018-08-10T07:04:18.467Z,35.8
2018-08-10T07:05:20.909Z,35.9
2018-08-10T07:06:23.368Z,35.9
2018-08-10T07:07:25.890Z,35.9
2018-08-10T07:08:28.268Z,35.9
2018-08-10T07:09:30.146Z,36.1
2018-08-10T07:10:32.614Z,35.9
2018-08-10T07:11:35.210Z,35.8
2018-08-10T07:12:37.776Z,35.9
2018-08-10T07:13:40.441Z,35.9
2018-08-10T07:14:43.109Z,36.2
2018-08-10T07:15:45.287Z,35.8
2018-08-10T07:16:47.200Z,35.9
2018-08-10T07:17:49.410Z,35.8
2018-08-10T07:18:51.849Z,36
2018-08-10T07:19:54.298Z,36.1
2018-08-10T07:20:56.467Z,36
2018-08-10T07:21:58.647Z,35.9
2018-08-10T07:23:00.864Z,36
2018-08-10T07:24:03.317Z,36.1
2018-08-10T07:25:05.764Z,36.1
2018-08-10T07:26:08.217Z,36
2018-08-10T07:27:10.901Z,35.9
2018-08-10T07:28:13.894Z,36
2018-08-10T07:29:16.066Z,36
2018-08-10T07:30:18.033Z,36
2018-08-10T07:31:20.486Z,35.8
2018-08-10T07:32:22.939Z,36
2018-08-10T07:33:24.822Z,36.1
2018-08-10T07:34:27.272Z,35.9
2018-08-10T07:35:29.415Z,35.9
2018-08-10T07:36:31.873Z,35.8
2018-08-10T07:37:34.316Z,36
2018-08-10T07:38:36.659Z,36
2018-08-10T07:39:39.634Z,36
2018-08-10T07:40:42.081Z,35.9
2018-08-10T07:41:43.986Z,36
2018-08-10T07:42:45.865Z,35.9
2018-08-10T07:43:48.038Z,36
2018-08-10T07:44:50.501Z,35.9
2018-08-10T07:45:52.946Z,36
2018-08-10T07:46:55.122Z,35.9
2018-08-10T07:47:57.599Z,36
2018-08-10T07:49:00.035Z,36
2018-08-10T07:50:02.252Z,36
2018-08-10T07:51:04.452Z,36.1
2018-08-10T07:52:06.679Z,36.1
2018-08-10T07:53:09.309Z,36
2018-08-10T07:54:11.218Z,35.9
2018-08-10T07:55:13.373Z,35.9
2018-08-10T07:56:15.558Z,35.9
2018-08-10T07:57:18.005Z,36
2018-08-10T07:58:20.455Z,35.8
2018-08-10T07:59:22.626Z,35.9
2018-08-10T08:00:25.087Z,36
2018-08-10T08:01:27.529Z,36
2018-08-10T08:02:29.446Z,36
2018-08-10T08:03:31.906Z,35.9
2018-08-10T08:04:33.839Z,35.8
2018-08-10T08:05:36.038Z,35.9
2018-08-10T08:06:38.217Z,36
2018-08-10T08:07:40.677Z,35.9
2018-08-10T08:08:43.112Z,36
2018-08-10T08:09:45.567Z,35.9
2018-08-10T08:10:47.747Z,35.9
2018-08-10T08:11:49.630Z,36.1
2018-08-10T08:12:51.813Z,35.9
2018-08-10T08:13:53.987Z,36
2018-08-10T08:14:56.167Z,36
2018-08-10T08:15:58.380Z,35.9
2018-08-10T08:17:00.545Z,36
2018-08-10T08:18:02.985Z,36
2018-08-10T08:19:05.919Z,35.8
2018-08-10T08:20:08.107Z,35.9
2018-08-10T08:21:10.292Z,35.9
2018-08-10T08:22:12.466Z,36.1
2018-08-10T08:23:14.649Z,36
2018-08-10T08:24:17.097Z,36
2018-08-10T08:25:19.280Z,35.8
2018-08-10T08:26:21.717Z,35.8
2018-08-10T08:27:23.631Z,35.9
2018-08-10T08:28:26.087Z,36
2018-08-10T08:29:27.731Z,36.1
2018-08-10T08:30:30.186Z,35.9
2018-08-10T08:31:32.342Z,35.9
2018-08-10T08:32:34.802Z,36.1
2018-08-10T08:33:37.255Z,35.9
2018-08-10T08:34:39.578Z,35.8
2018-08-10T08:35:42.162Z,35.9
2018-08-10T08:36:44.051Z,35.8
2018-08-10T08:37:46.559Z,36
2018-08-10T08:38:48.994Z,36
2018-08-10T08:39:51.179Z,36.1
2018-08-10T08:40:53.367Z,35.8
2018-08-10T08:41:55.862Z,35.9
2018-08-10T08:42:58.033Z,35.8
2018-08-10T08:44:00.025Z,35.9
2018-08-10T08:45:02.475Z,35.9
2018-08-10T08:46:04.994Z,35.9
2018-08-10T08:47:08.688Z,36
2018-08-10T08:48:11.167Z,35.9
2018-08-10T08:49:13.628Z,35.9
2018-08-10T08:50:15.561Z,35.9
2018-08-10T08:51:18.095Z,35.9
2018-08-10T08:52:20.542Z,35.9
2018-08-10T08:53:22.442Z,36.1
2018-08-10T08:54:24.914Z,35.8
2018-08-10T08:55:27.352Z,35.8
2018-08-10T08:56:29.527Z,36
2018-08-10T08:57:31.704Z,35.9
2018-08-10T08:58:33.886Z,35.9
2018-08-10T08:59:36.074Z,35.7
2018-08-10T09:00:38.238Z,35.7
2018-08-10T09:01:40.422Z,35.8
2018-08-10T09:02:42.597Z,35.8
2018-08-10T09:03:44.519Z,35.9
2018-08-10T09:04:46.428Z,35.8
2018-08-10T09:05:48.871Z,35.8
2018-08-10T09:06:51.327Z,35.8
2018-08-10T09:07:53.231Z,35.8
2018-08-10T09:08:55.160Z,35.9
2018-08-10T09:09:57.362Z,35.8
2018-08-10T09:10:59.622Z,36
2018-08-10T09:12:01.497Z,35.7
2018-08-10T09:13:03.678Z,36
2018-08-10T09:14:05.569Z,35.8
2018-08-10T09:15:08.010Z,35.8
2018-08-10T09:16:10.463Z,35.9
2018-08-10T09:17:13.070Z,35.9
2018-08-10T09:18:16.088Z,35.8
2018-08-10T09:19:18.268Z,35.7
2018-08-10T09:20:20.621Z,35.9
2018-08-10T09:21:23.463Z,35.9
2018-08-10T09:22:25.083Z,35.8
2018-08-10T09:23:27.084Z,35.9
2018-08-10T09:24:29.940Z,35.8
2018-08-10T09:25:32.118Z,35.7
2018-08-10T09:26:34.025Z,35.8
2018-08-10T09:27:35.922Z,35.9
2018-08-10T09:28:38.091Z,35.8
2018-08-10T09:29:40.256Z,35.8
2018-08-10T09:30:42.699Z,36
2018-08-10T09:31:45.149Z,35.8
2018-08-10T09:32:47.337Z,35.8
2018-08-10T09:33:49.781Z,35.8
2018-08-10T09:34:51.949Z,35.9
2018-08-10T09:35:54.103Z,35.8
2018-08-10T09:36:56.247Z,35.8
2018-08-10T09:37:58.421Z,35.8
2018-08-10T09:39:00.607Z,35.9
2018-08-10T09:40:03.077Z,35.9
2018-08-10T09:41:04.973Z,35.7
2018-08-10T09:42:07.228Z,35.8
2018-08-10T09:43:09.866Z,35.8
2018-08-10T09:44:12.129Z,35.9
2018-08-10T09:45:14.512Z,35.8
2018-08-10T09:46:16.698Z,35.9
2018-08-10T09:47:19.149Z,35.9
2018-08-10T09:48:21.076Z,35.8
2018-08-10T09:49:23.522Z,35.8
2018-08-10T09:50:25.393Z,35.8
2018-08-10T09:51:27.548Z,35.9
2018-08-10T09:52:30.000Z,35.6
2018-08-10T09:53:32.451Z,35.9
2018-08-10T09:54:34.639Z,35.8
2018-08-10T09:55:36.549Z,35.8
2018-08-10T09:56:39.002Z,35.8
2018-08-10T09:57:41.448Z,35.9
2018-08-10T09:58:43.907Z,35.8
2018-08-10T09:59:46.108Z,35.8
2018-08-10T10:00:48.475Z,36
2018-08-10T10:01:50.645Z,35.8
2018-08-10T10:02:52.809Z,35.8
2018-08-10T10:03:55.272Z,35.9
2018-08-10T10:04:57.722Z,35.8
2018-08-10T10:06:00.176Z,35.9
2018-08-10T10:07:02.355Z,35.8
2018-08-10T10:08:04.815Z,35.8
2018-08-10T10:09:07.050Z,35.8
2018-08-10T10:10:09.194Z,36
2018-08-10T10:11:11.639Z,35.8
2018-08-10T10:12:13.800Z,35.9
2018-08-10T10:13:16.251Z,35.9
2018-08-10T10:14:18.400Z,35.8
2018-08-10T10:15:20.872Z,35.8
2018-08-10T10:16:23.048Z,35.8
2018-08-10T10:17:25.320Z,35.7
2018-08-10T10:18:28.037Z,35.9
2018-08-10T10:19:30.489Z,35.9
2018-08-10T10:20:32.655Z,35.8
2018-08-10T10:21:34.557Z,35.8
2018-08-10T10:22:36.502Z,36
2018-08-10T10:23:38.676Z,35.6
2018-08-10T10:24:41.136Z,35.9
2018-08-10T10:25:43.046Z,35.9
2018-08-10T10:26:45.226Z,35.8
2018-08-10T10:27:47.678Z,35.9
2018-08-10T10:28:50.119Z,35.7
2018-08-10T10:29:52.280Z,35.7
2018-08-10T10:30:54.746Z,35.8
2018-08-10T10:31:56.639Z,35.9
2018-08-10T10:32:59.088Z,35.8
2018-08-10T10:34:01.269Z,36
2018-08-10T10:35:03.709Z,35.9
2018-08-10T10:36:05.888Z,35.9
2018-08-10T10:37:08.072Z,35.8
2018-08-10T10:38:10.508Z,35.8
2018-08-10T10:39:12.155Z,35.9
2018-08-10T10:40:14.614Z,35.9
2018-08-10T10:41:16.800Z,36.1
2018-08-10T10:42:18.429Z,35.8
2018-08-10T10:43:20.050Z,35.8
2018-08-10T10:44:22.219Z,35.9
2018-08-10T10:45:24.411Z,36
2018-08-10T10:46:26.850Z,35.8
2018-08-10T10:47:29.133Z,35.8
2018-08-10T10:48:31.801Z,35.9
2018-08-10T10:49:34.258Z,35.9
2018-08-10T10:50:36.699Z,35.9
2018-08-10T10:51:38.702Z,35.9
2018-08-10T10:52:40.637Z,35.8
2018-08-10T10:53:42.534Z,36
2018-08-10T10:54:44.713Z,35.8
2018-08-10T10:55:46.908Z,35.9
2018-08-10T10:56:49.441Z,35.9
2018-08-10T10:57:52.318Z,36
2018-08-10T10:58:54.758Z,35.9
2018-08-10T10:59:56.942Z,35.8
2018-08-10T11:00:59.387Z,35.9
2018-08-10T11:02:01.840Z,35.8
2018-08-10T11:03:04.017Z,36
2018-08-10T11:04:06.234Z,36
2018-08-10T11:05:08.406Z,36
2018-08-10T11:06:10.876Z,35.9
2018-08-10T11:07:13.458Z,35.9
2018-08-10T11:08:15.918Z,35.9
2018-08-10T11:09:18.104Z,35.9
2018-08-10T11:10:20.279Z,35.9
2018-08-10T11:11:22.163Z,35.9
2018-08-10T11:12:24.338Z,35.8
2018-08-10T11:13:26.583Z,36
2018-08-10T11:14:28.736Z,36
2018-08-10T11:15:30.918Z,35.9
2018-08-10T11:16:33.377Z,35.8
2018-08-10T11:17:35.831Z,36
2018-08-10T11:18:37.772Z,35.9
2018-08-10T11:19:39.964Z,35.9
2018-08-10T11:20:42.412Z,35.8
2018-08-10T11:21:44.612Z,35.9
2018-08-10T11:22:47.059Z,36
2018-08-10T11:23:49.517Z,36
2018-08-10T11:24:51.973Z,35.9
2018-08-10T11:25:54.001Z,36.1
2018-08-10T11:26:56.429Z,35.9
2018-08-10T11:27:58.588Z,35.9
2018-08-10T11:29:00.760Z,35.9
2018-08-10T11:30:02.665Z,35.9
2018-08-10T11:31:04.549Z,35.9
2018-08-10T11:32:06.811Z,35.9
2018-08-10T11:33:09.788Z,36
2018-08-10T11:34:12.244Z,35.9
2018-08-10T11:35:14.157Z,35.9
2018-08-10T11:36:16.608Z,35.8
2018-08-10T11:37:19.066Z,35.8
2018-08-10T11:38:21.243Z,35.8
2018-08-10T11:39:23.436Z,36
2018-08-10T11:40:25.358Z,35.9
2018-08-10T11:41:27.905Z,35.9
2018-08-10T11:42:30.159Z,36
2018-08-10T11:43:32.337Z,35.9
2018-08-10T11:44:34.793Z,35.9
2018-08-10T11:45:36.941Z,35.9
2018-08-10T11:46:39.125Z,35.8
2018-08-10T11:47:41.574Z,35.8
2018-08-10T11:48:43.767Z,35.9
2018-08-10T11:49:45.685Z,35.8
2018-08-10T11:50:48.144Z,35.9
2018-08-10T11:51:50.637Z,35.9
2018-08-10T11:52:53.080Z,36
2018-08-10T11:53:55.540Z,35.8
2018-08-10T11:54:57.439Z,35.8
2018-08-10T11:55:59.889Z,35.7
2018-08-10T11:57:02.073Z,35.9
2018-08-10T11:58:04.013Z,35.8
2018-08-10T11:59:06.202Z,35.8
2018-08-10T12:00:08.266Z,35.9
2018-08-10T12:01:10.733Z,35.8
2018-08-10T12:02:12.928Z,35.8
2018-08-10T12:03:15.116Z,35.8
2018-08-10T12:04:17.298Z,35.9
2018-08-10T12:05:19.491Z,35.8
2018-08-10T12:06:21.850Z,35.8
2018-08-10T12:07:24.523Z,35.9
2018-08-10T12:08:27.117Z,35.9
2018-08-10T12:09:29.314Z,35.8
2018-08-10T12:10:31.759Z,35.8
2018-08-10T12:11:34.222Z,35.7
2018-08-10T12:12:36.205Z,35.9
2018-08-10T12:13:37.936Z,35.8
2018-08-10T12:14:40.114Z,35.7
2018-08-10T12:15:42.550Z,35.7
2018-08-10T12:16:44.738Z,35.9
2018-08-10T12:17:47.005Z,35.7
2018-08-10T12:18:49.192Z,35.9
2018-08-10T12:19:51.362Z,35.9
2018-08-10T12:20:53.524Z,35.9
2018-08-10T12:21:55.976Z,35.8
2018-08-10T12:22:58.437Z,35.9
2018-08-10T12:24:00.889Z,35.7
2018-08-10T12:25:03.402Z,35.8
2018-08-10T12:26:05.696Z,35.8
2018-08-10T12:27:08.159Z,35.9
2018-08-10T12:28:10.347Z,35.9
2018-08-10T12:29:12.803Z,35.8
2018-08-10T12:30:14.579Z,35.8
2018-08-10T12:31:16.875Z,35.7
2018-08-10T12:32:18.858Z,35.8
2018-08-10T12:33:21.147Z,35.8
2018-08-10T12:34:23.064Z,35.8
2018-08-10T12:35:24.947Z,35.9
2018-08-10T12:36:27.126Z,35.8
2018-08-10T12:37:29.568Z,35.7
2018-08-10T12:38:31.746Z,35.8
2018-08-10T12:39:34.180Z,35.8
2018-08-10T12:40:36.626Z,35.7
2018-08-10T12:41:39.088Z,35.8
2018-08-10T12:42:40.981Z,35.8
2018-08-10T12:43:42.879Z,35.8
2018-08-10T12:44:45.624Z,35.8
2018-08-10T12:45:48.148Z,35.7
2018-08-10T12:46:50.634Z,35.6
2018-08-10T12:47:52.558Z,35.8
2018-08-10T12:48:55.031Z,35.8
2018-08-10T12:49:56.942Z,35.7
2018-08-10T12:50:59.397Z,35.9
2018-08-10T12:52:01.851Z,35.8
2018-08-10T12:53:04.018Z,35.8
2018-08-10T12:54:06.204Z,35.7
2018-08-10T12:55:08.644Z,35.8
2018-08-10T12:56:10.833Z,35.8
2018-08-10T12:57:13.325Z,35.6
2018-08-10T12:58:15.510Z,35.8
2018-08-10T12:59:17.404Z,35.7
2018-08-10T13:00:19.575Z,35.9
2018-08-10T13:01:21.781Z,35.7
2018-08-10T13:02:24.046Z,35.8
2018-08-10T13:03:26.672Z,35.9
2018-08-10T13:04:28.855Z,35.7
2018-08-10T13:05:31.048Z,35.7
2018-08-10T13:06:33.230Z,35.9
2018-08-10T13:07:35.697Z,35.8
2018-08-10T13:08:37.968Z,35.7
2018-08-10T13:09:40.162Z,35.7
2018-08-10T13:10:42.400Z,35.7
2018-08-10T13:11:44.636Z,35.7
2018-08-10T13:12:46.808Z,35.9
2018-08-10T13:13:48.707Z,35.6
2018-08-10T13:14:50.867Z,35.7
2018-08-10T13:15:53.031Z,35.7
2018-08-10T13:16:55.218Z,35.7
2018-08-10T13:17:57.409Z,35.7
2018-08-10T13:18:59.578Z,35.9
2018-08-10T13:20:01.736Z,35.7
2018-08-10T13:21:04.176Z,35.6
2018-08-10T13:22:06.372Z,35.7
2018-08-10T13:23:08.569Z,35.8
2018-08-10T13:24:11.037Z,35.7
2018-08-10T13:25:13.486Z,35.7
2018-08-10T13:26:15.665Z,35.8
2018-08-10T13:27:18.118Z,35.7
2018-08-10T13:28:20.576Z,35.7
2018-08-10T13:29:22.817Z,35.8
2018-08-10T13:30:24.996Z,35.6
2018-08-10T13:31:27.196Z,35.7
2018-08-10T13:32:29.356Z,35.8
2018-08-10T13:33:31.806Z,35.8
2018-08-10T13:34:33.967Z,35.7
2018-08-10T13:35:36.469Z,35.7
2018-08-10T13:36:39.399Z,35.6
2018-08-10T13:37:41.858Z,35.7
2018-08-10T13:38:44.306Z,35.7
2018-08-10T13:39:46.477Z,35.7
2018-08-10T13:40:49.013Z,35.8
2018-08-10T13:41:51.258Z,35.9
2018-08-10T13:42:53.448Z,35.7
2018-08-10T13:43:55.647Z,35.7
2018-08-10T13:44:57.831Z,35.8
2018-08-10T13:46:00.291Z,35.6
2018-08-10T13:47:02.739Z,35.7
2018-08-10T13:48:04.913Z,35.7
2018-08-10T13:49:06.823Z,35.7
2018-08-10T13:50:09.269Z,35.6
2018-08-10T13:51:11.447Z,35.7
2018-08-10T13:52:13.628Z,35.8
2018-08-10T13:53:16.226Z,35.7
2018-08-10T13:54:18.822Z,35.6
2018-08-10T13:55:20.750Z,35.9
2018-08-10T13:56:23.199Z,35.8
2018-08-10T13:57:25.394Z,35.7